sensor_id;sensor_type;location;lat;lon;timestamp;temperature;humidity
26745;DHT22;14342;50.960;13.880;2023-08-24T00:00:06;20.90;99.90
26745;DHT22;14342;50.960;13.880;2023-08-24T00:01:08;20.90;99.90
26745;DHT22;14342;50.960;13.880;2023-08-24T00:02:09;20.90;99.90
26745;DHT22;14342;50.960;13.880;2023-08-24T00:03:11;20.90;99.90
26745;DHT22;14342;50.960;13.880;2023-08-24T00:04:11;20.90;99.90
26745;DHT22;14342;50.960;13.880;2023-08-24T00:05:13;20.90;99.90
26745;DHT22;14342;50.960;13.880;2023-08-24T00:06:14;20.80;99.90
26745;DHT22;14342;50.960;13.880;2023-08-24T00:07:15;20.80;99.90
26745;DHT22;14342;50.960;13.880;2023-08-24T00:08:16;20.80;99.90
26745;DHT22;14342;50.960;13.880;2023-08-24T00:09:17;20.80;99.90
26745;DHT22;14342;50.960;13.880;2023-08-24T00:10:18;20.80;99.90
26745;DHT22;14342;50.960;13.880;2023-08-24T00:11:21;20.80;99.90
26745;DHT22;14342;50.960;13.880;2023-08-24T00:12:22;20.70;99.90
26745;DHT22;14342;50.960;13.880;2023-08-24T00:13:23;20.70;99.90
26745;DHT22;14342;50.960;13.880;2023-08-24T00:14:24;20.70;99.90
26745;DHT22;14342;50.960;13.880;2023-08-24T00:15:26;20.70;99.90
26745;DHT22;14342;50.960;13.880;2023-08-24T00:16:26;20.70;99.90
26745;DHT22;14342;50.960;13.880;2023-08-24T00:17:28;20.70;99.90
26745;DHT22;14342;50.960;13.880;2023-08-24T00:18:29;20.70;99.90
26745;DHT22;14342;50.960;13.880;2023-08-24T00:19:31;20.60;99.90
26745;DHT22;14342;50.960;13.880;2023-08-24T00:20:32;20.60;99.90
26745;DHT22;14342;50.960;13.880;2023-08-24T00:21:33;20.60;99.90
26745;DHT22;14342;50.960;13.880;2023-08-24T00:22:34;20.60;99.90
26745;DHT22;14342;50.960;13.880;2023-08-24T00:23:36;20.60;99.90
26745;DHT22;14342;50.960;13.880;2023-08-24T00:24:36;20.60;99.90
26745;DHT22;14342;50.960;13.880;2023-08-24T00:25:37;20.60;99.90
26745;DHT22;14342;50.960;13.880;2023-08-24T00:26:42;20.60;99.90
26745;DHT22;14342;50.960;13.880;2023-08-24T00:27:43;20.60;99.90
26745;DHT22;14342;50.960;13.880;2023-08-24T00:28:45;20.60;99.90
26745;DHT22;14342;50.960;13.880;2023-08-24T00:29:46;20.60;99.90
26745;DHT22;14342;50.960;13.880;2023-08-24T00:30:46;20.50;99.90
26745;DHT22;14342;50.960;13.880;2023-08-24T00:31:48;20.50;99.90
26745;DHT22;14342;50.960;13.880;2023-08-24T00:32:49;20.50;99.90
26745;DHT22;14342;50.960;13.880;2023-08-24T00:33:50;20.50;99.90
26745;DHT22;14342;50.960;13.880;2023-08-24T00:34:51;20.50;99.90
26745;DHT22;14342;50.960;13.880;2023-08-24T00:35:52;20.50;99.90
26745;DHT22;14342;50.960;13.880;2023-08-24T00:36:53;20.50;99.90
26745;DHT22;14342;50.960;13.880;2023-08-24T00:37:55;20.50;99.90
26745;DHT22;14342;50.960;13.880;2023-08-24T00:38:56;20.50;99.90
26745;DHT22;14342;50.960;13.880;2023-08-24T00:39:59;20.50;99.90
26745;DHT22;14342;50.960;13.880;2023-08-24T00:41:00;20.50;99.90
26745;DHT22;14342;50.960;13.880;2023-08-24T00:42:02;20.50;99.90
26745;DHT22;14342;50.960;13.880;2023-08-24T00:43:04;20.60;99.90
26745;DHT22;14342;50.960;13.880;2023-08-24T00:44:04;20.50;99.90
26745;DHT22;14342;50.960;13.880;2023-08-24T00:45:08;20.50;99.90
26745;DHT22;14342;50.960;13.880;2023-08-24T00:46:09;20.50;99.90
26745;DHT22;14342;50.960;13.880;2023-08-24T00:47:11;20.60;99.90
26745;DHT22;14342;50.960;13.880;2023-08-24T00:48:12;20.60;99.90
26745;DHT22;14342;50.960;13.880;2023-08-24T00:49:14;20.60;99.90
26745;DHT22;14342;50.960;13.880;2023-08-24T00:50:15;20.60;99.90
26745;DHT22;14342;50.960;13.880;2023-08-24T00:51:17;20.60;99.90
26745;DHT22;14342;50.960;13.880;2023-08-24T00:52:18;20.60;99.90
26745;DHT22;14342;50.960;13.880;2023-08-24T00:53:20;20.60;99.90
26745;DHT22;14342;50.960;13.880;2023-08-24T00:54:21;20.60;99.90
26745;DHT22;14342;50.960;13.880;2023-08-24T00:55:23;20.60;99.90
26745;DHT22;14342;50.960;13.880;2023-08-24T00:56:23;20.60;99.90
26745;DHT22;14342;50.960;13.880;2023-08-24T00:57:27;20.50;99.90
26745;DHT22;14342;50.960;13.880;2023-08-24T00:58:27;20.50;99.90
26745;DHT22;14342;50.960;13.880;2023-08-24T00:59:29;20.70;99.90
26745;DHT22;14342;50.960;13.880;2023-08-24T01:00:30;20.50;99.90
26745;DHT22;14342;50.960;13.880;2023-08-24T01:01:31;20.50;99.90
26745;DHT22;14342;50.960;13.880;2023-08-24T01:02:32;20.50;99.90
26745;DHT22;14342;50.960;13.880;2023-08-24T01:03:32;20.40;99.90
26745;DHT22;14342;50.960;13.880;2023-08-24T01:04:34;20.40;99.90
26745;DHT22;14342;50.960;13.880;2023-08-24T01:05:35;20.40;99.90
26745;DHT22;14342;50.960;13.880;2023-08-24T01:06:36;20.40;99.90
26745;DHT22;14342;50.960;13.880;2023-08-24T01:07:38;20.40;99.90
26745;DHT22;14342;50.960;13.880;2023-08-24T01:08:40;20.40;99.90
26745;DHT22;14342;50.960;13.880;2023-08-24T01:09:41;20.40;99.90
26745;DHT22;14342;50.960;13.880;2023-08-24T01:10:44;20.40;99.90
26745;DHT22;14342;50.960;13.880;2023-08-24T01:11:49;20.40;99.90
26745;DHT22;14342;50.960;13.880;2023-08-24T01:12:58;20.30;99.90
26745;DHT22;14342;50.960;13.880;2023-08-24T01:14:04;20.30;99.90
26745;DHT22;14342;50.960;13.880;2023-08-24T01:15:09;20.30;99.90
26745;DHT22;14342;50.960;13.880;2023-08-24T01:16:15;20.30;99.90
26745;DHT22;14342;50.960;13.880;2023-08-24T01:17:18;20.30;99.90
26745;DHT22;14342;50.960;13.880;2023-08-24T01:18:20;20.30;99.90
26745;DHT22;14342;50.960;13.880;2023-08-24T01:19:25;20.30;99.90
26745;DHT22;14342;50.960;13.880;2023-08-24T01:20:29;20.30;99.90
26745;DHT22;14342;50.960;13.880;2023-08-24T01:21:30;20.30;99.90
26745;DHT22;14342;50.960;13.880;2023-08-24T01:22:33;20.30;99.90
26745;DHT22;14342;50.960;13.880;2023-08-24T01:23:36;20.20;99.90
26745;DHT22;14342;50.960;13.880;2023-08-24T01:24:40;20.20;99.90
26745;DHT22;14342;50.960;13.880;2023-08-24T01:25:45;20.20;99.90
26745;DHT22;14342;50.960;13.880;2023-08-24T01:26:51;20.20;99.90
26745;DHT22;14342;50.960;13.880;2023-08-24T01:27:53;20.20;99.90
26745;DHT22;14342;50.960;13.880;2023-08-24T01:28:55;20.10;99.90
26745;DHT22;14342;50.960;13.880;2023-08-24T01:29:57;20.10;99.90
26745;DHT22;14342;50.960;13.880;2023-08-24T01:30:59;20.10;99.90
26745;DHT22;14342;50.960;13.880;2023-08-24T01:32:00;20.10;99.90
26745;DHT22;14342;50.960;13.880;2023-08-24T01:33:02;20.10;99.90
26745;DHT22;14342;50.960;13.880;2023-08-24T01:34:03;20.10;99.90
26745;DHT22;14342;50.960;13.880;2023-08-24T01:35:05;20.00;99.90
26745;DHT22;14342;50.960;13.880;2023-08-24T01:36:06;20.00;99.90
26745;DHT22;14342;50.960;13.880;2023-08-24T01:37:08;19.90;99.90
26745;DHT22;14342;50.960;13.880;2023-08-24T01:38:08;19.90;99.90
26745;DHT22;14342;50.960;13.880;2023-08-24T01:39:14;19.80;99.90
26745;DHT22;14342;50.960;13.880;2023-08-24T01:40:17;19.80;99.90
26745;DHT22;14342;50.960;13.880;2023-08-24T01:41:22;19.80;99.90
26745;DHT22;14342;50.960;13.880;2023-08-24T01:42:26;19.80;99.90
26745;DHT22;14342;50.960;13.880;2023-08-24T01:43:30;19.80;99.90
26745;DHT22;14342;50.960;13.880;2023-08-24T01:44:35;19.80;99.90
26745;DHT22;14342;50.960;13.880;2023-08-24T01:45:37;19.80;99.90
26745;DHT22;14342;50.960;13.880;2023-08-24T01:46:39;19.80;99.90
26745;DHT22;14342;50.960;13.880;2023-08-24T01:47:40;19.80;99.90
26745;DHT22;14342;50.960;13.880;2023-08-24T01:48:41;19.80;99.90
26745;DHT22;14342;50.960;13.880;2023-08-24T01:49:43;19.60;99.90
26745;DHT22;14342;50.960;13.880;2023-08-24T01:50:44;19.70;99.90
26745;DHT22;14342;50.960;13.880;2023-08-24T01:51:47;19.70;99.90
26745;DHT22;14342;50.960;13.880;2023-08-24T01:52:47;19.70;99.90
26745;DHT22;14342;50.960;13.880;2023-08-24T01:53:49;19.70;99.90
26745;DHT22;14342;50.960;13.880;2023-08-24T01:54:50;19.70;99.90
26745;DHT22;14342;50.960;13.880;2023-08-24T01:55:52;19.70;99.90
26745;DHT22;14342;50.960;13.880;2023-08-24T01:56:53;19.60;99.90
26745;DHT22;14342;50.960;13.880;2023-08-24T01:57:55;19.60;99.90
26745;DHT22;14342;50.960;13.880;2023-08-24T01:58:57;19.60;99.90
26745;DHT22;14342;50.960;13.880;2023-08-24T01:59:58;19.60;99.90
26745;DHT22;14342;50.960;13.880;2023-08-24T02:00:59;19.60;99.90
26745;DHT22;14342;50.960;13.880;2023-08-24T02:02:00;19.60;99.90
26745;DHT22;14342;50.960;13.880;2023-08-24T02:03:00;19.60;99.90
26745;DHT22;14342;50.960;13.880;2023-08-24T02:04:02;19.60;99.90
26745;DHT22;14342;50.960;13.880;2023-08-24T02:05:03;19.60;99.90
26745;DHT22;14342;50.960;13.880;2023-08-24T02:06:05;19.60;99.90
26745;DHT22;14342;50.960;13.880;2023-08-24T02:07:07;19.60;99.90
26745;DHT22;14342;50.960;13.880;2023-08-24T02:08:08;19.50;99.90
26745;DHT22;14342;50.960;13.880;2023-08-24T02:09:09;19.50;99.90
26745;DHT22;14342;50.960;13.880;2023-08-24T02:10:10;19.50;99.90
26745;DHT22;14342;50.960;13.880;2023-08-24T02:11:11;19.50;99.90
26745;DHT22;14342;50.960;13.880;2023-08-24T02:12:12;19.50;99.90
26745;DHT22;14342;50.960;13.880;2023-08-24T02:13:15;19.50;99.90
26745;DHT22;14342;50.960;13.880;2023-08-24T02:14:15;19.50;99.90
26745;DHT22;14342;50.960;13.880;2023-08-24T02:15:17;19.50;99.90
26745;DHT22;14342;50.960;13.880;2023-08-24T02:16:17;19.50;99.90
26745;DHT22;14342;50.960;13.880;2023-08-24T02:17:19;19.50;99.90
26745;DHT22;14342;50.960;13.880;2023-08-24T02:18:20;19.60;99.90
26745;DHT22;14342;50.960;13.880;2023-08-24T02:19:20;19.50;99.90
26745;DHT22;14342;50.960;13.880;2023-08-24T02:20:22;19.50;99.90
26745;DHT22;14342;50.960;13.880;2023-08-24T02:21:22;19.50;99.90
26745;DHT22;14342;50.960;13.880;2023-08-24T02:22:24;19.50;99.90
26745;DHT22;14342;50.960;13.880;2023-08-24T02:23:24;19.40;99.90
26745;DHT22;14342;50.960;13.880;2023-08-24T02:24:26;19.40;99.90
26745;DHT22;14342;50.960;13.880;2023-08-24T02:25:27;19.40;99.90
26745;DHT22;14342;50.960;13.880;2023-08-24T02:26:29;19.40;99.90
26745;DHT22;14342;50.960;13.880;2023-08-24T02:27:29;19.40;99.90
26745;DHT22;14342;50.960;13.880;2023-08-24T02:28:33;19.40;99.90
26745;DHT22;14342;50.960;13.880;2023-08-24T02:29:33;19.40;99.90
26745;DHT22;14342;50.960;13.880;2023-08-24T02:30:36;19.40;99.90
26745;DHT22;14342;50.960;13.880;2023-08-24T02:31:37;19.40;99.90
26745;DHT22;14342;50.960;13.880;2023-08-24T02:32:39;19.40;99.90
26745;DHT22;14342;50.960;13.880;2023-08-24T02:33:39;19.40;99.90
26745;DHT22;14342;50.960;13.880;2023-08-24T02:34:41;19.40;99.90
26745;DHT22;14342;50.960;13.880;2023-08-24T02:35:41;19.30;99.90
26745;DHT22;14342;50.960;13.880;2023-08-24T02:36:45;19.30;99.90
26745;DHT22;14342;50.960;13.880;2023-08-24T02:37:45;19.30;99.90
26745;DHT22;14342;50.960;13.880;2023-08-24T02:38:47;19.30;99.90
26745;DHT22;14342;50.960;13.880;2023-08-24T02:39:48;19.30;99.90
26745;DHT22;14342;50.960;13.880;2023-08-24T02:40:48;19.30;99.90
26745;DHT22;14342;50.960;13.880;2023-08-24T02:41:50;19.30;99.90
26745;DHT22;14342;50.960;13.880;2023-08-24T02:42:51;19.30;99.90
26745;DHT22;14342;50.960;13.880;2023-08-24T02:43:53;19.30;99.90
26745;DHT22;14342;50.960;13.880;2023-08-24T02:44:54;19.30;99.90
26745;DHT22;14342;50.960;13.880;2023-08-24T02:45:59;19.30;99.90
26745;DHT22;14342;50.960;13.880;2023-08-24T02:46:59;19.30;99.90
26745;DHT22;14342;50.960;13.880;2023-08-24T02:48:01;19.30;99.90
26745;DHT22;14342;50.960;13.880;2023-08-24T02:49:02;19.30;99.90
26745;DHT22;14342;50.960;13.880;2023-08-24T02:50:02;19.30;99.90
26745;DHT22;14342;50.960;13.880;2023-08-24T02:51:05;19.30;99.90
26745;DHT22;14342;50.960;13.880;2023-08-24T02:52:06;19.30;99.90
26745;DHT22;14342;50.960;13.880;2023-08-24T02:53:07;19.30;99.90
26745;DHT22;14342;50.960;13.880;2023-08-24T02:54:08;19.30;99.90
26745;DHT22;14342;50.960;13.880;2023-08-24T02:55:09;19.30;99.90
26745;DHT22;14342;50.960;13.880;2023-08-24T02:56:10;19.30;99.90
26745;DHT22;14342;50.960;13.880;2023-08-24T02:57:11;19.30;99.90
26745;DHT22;14342;50.960;13.880;2023-08-24T02:58:12;19.30;99.90
26745;DHT22;14342;50.960;13.880;2023-08-24T02:59:14;19.30;99.90
26745;DHT22;14342;50.960;13.880;2023-08-24T03:00:16;19.30;99.90
26745;DHT22;14342;50.960;13.880;2023-08-24T03:01:17;19.30;99.90
26745;DHT22;14342;50.960;13.880;2023-08-24T03:02:19;19.40;99.90
26745;DHT22;14342;50.960;13.880;2023-08-24T03:03:19;19.40;99.90
26745;DHT22;14342;50.960;13.880;2023-08-24T03:04:21;19.40;99.90
26745;DHT22;14342;50.960;13.880;2023-08-24T03:05:21;19.40;99.90
26745;DHT22;14342;50.960;13.880;2023-08-24T03:06:24;19.40;99.90
26745;DHT22;14342;50.960;13.880;2023-08-24T03:07:24;19.40;99.90
26745;DHT22;14342;50.960;13.880;2023-08-24T03:08:26;19.40;99.90
26745;DHT22;14342;50.960;13.880;2023-08-24T03:09:27;19.30;99.90
26745;DHT22;14342;50.960;13.880;2023-08-24T03:10:28;19.30;99.90
26745;DHT22;14342;50.960;13.880;2023-08-24T03:11:29;19.30;99.90
26745;DHT22;14342;50.960;13.880;2023-08-24T03:12:31;19.30;99.90
26745;DHT22;14342;50.960;13.880;2023-08-24T03:13:31;19.20;99.90
26745;DHT22;14342;50.960;13.880;2023-08-24T03:14:34;19.20;99.90
26745;DHT22;14342;50.960;13.880;2023-08-24T03:15:35;19.20;99.90
26745;DHT22;14342;50.960;13.880;2023-08-24T03:16:36;19.20;99.90
26745;DHT22;14342;50.960;13.880;2023-08-24T03:17:38;19.10;99.90
26745;DHT22;14342;50.960;13.880;2023-08-24T03:18:39;19.10;99.90
26745;DHT22;14342;50.960;13.880;2023-08-24T03:19:40;19.10;99.90
26745;DHT22;14342;50.960;13.880;2023-08-24T03:20:41;19.10;99.90
26745;DHT22;14342;50.960;13.880;2023-08-24T03:21:43;19.00;99.90
26745;DHT22;14342;50.960;13.880;2023-08-24T03:22:43;19.00;99.90
26745;DHT22;14342;50.960;13.880;2023-08-24T03:23:45;18.90;99.90
26745;DHT22;14342;50.960;13.880;2023-08-24T03:24:46;18.90;99.90
26745;DHT22;14342;50.960;13.880;2023-08-24T03:25:47;19.00;99.90
26745;DHT22;14342;50.960;13.880;2023-08-24T03:26:48;18.90;99.90
26745;DHT22;14342;50.960;13.880;2023-08-24T03:27:49;18.90;99.90
26745;DHT22;14342;50.960;13.880;2023-08-24T03:28:50;19.00;99.90
26745;DHT22;14342;50.960;13.880;2023-08-24T03:29:53;18.90;99.90
26745;DHT22;14342;50.960;13.880;2023-08-24T03:30:54;18.90;99.90
26745;DHT22;14342;50.960;13.880;2023-08-24T03:31:55;18.90;99.90
26745;DHT22;14342;50.960;13.880;2023-08-24T03:32:57;18.90;99.90
26745;DHT22;14342;50.960;13.880;2023-08-24T03:33:59;18.90;99.90
26745;DHT22;14342;50.960;13.880;2023-08-24T03:35:01;18.80;99.90
26745;DHT22;14342;50.960;13.880;2023-08-24T03:36:02;18.70;99.90
26745;DHT22;14342;50.960;13.880;2023-08-24T03:37:04;18.70;99.90
26745;DHT22;14342;50.960;13.880;2023-08-24T03:38:05;18.70;99.90
26745;DHT22;14342;50.960;13.880;2023-08-24T03:39:05;18.70;99.90
26745;DHT22;14342;50.960;13.880;2023-08-24T03:40:07;18.70;99.90
26745;DHT22;14342;50.960;13.880;2023-08-24T03:41:08;18.60;99.90
26745;DHT22;14342;50.960;13.880;2023-08-24T03:42:10;18.60;99.90
26745;DHT22;14342;50.960;13.880;2023-08-24T03:43:10;18.60;99.90
26745;DHT22;14342;50.960;13.880;2023-08-24T03:44:11;18.50;99.90
26745;DHT22;14342;50.960;13.880;2023-08-24T03:45:14;18.50;99.90
26745;DHT22;14342;50.960;13.880;2023-08-24T03:46:15;18.50;99.90
26745;DHT22;14342;50.960;13.880;2023-08-24T03:47:16;18.40;99.90
26745;DHT22;14342;50.960;13.880;2023-08-24T03:48:17;18.40;99.90
26745;DHT22;14342;50.960;13.880;2023-08-24T03:49:19;18.40;99.90
26745;DHT22;14342;50.960;13.880;2023-08-24T03:50:19;18.50;99.90
26745;DHT22;14342;50.960;13.880;2023-08-24T03:51:22;18.50;99.90
26745;DHT22;14342;50.960;13.880;2023-08-24T03:52:23;18.50;99.90
26745;DHT22;14342;50.960;13.880;2023-08-24T03:53:24;18.50;99.90
26745;DHT22;14342;50.960;13.880;2023-08-24T03:54:25;18.50;99.90
26745;DHT22;14342;50.960;13.880;2023-08-24T03:55:28;18.50;99.90
26745;DHT22;14342;50.960;13.880;2023-08-24T03:56:29;18.50;99.90
26745;DHT22;14342;50.960;13.880;2023-08-24T03:57:30;18.50;99.90
26745;DHT22;14342;50.960;13.880;2023-08-24T03:58:31;18.60;99.90
26745;DHT22;14342;50.960;13.880;2023-08-24T03:59:32;18.60;99.90
26745;DHT22;14342;50.960;13.880;2023-08-24T04:00:34;18.60;99.90
26745;DHT22;14342;50.960;13.880;2023-08-24T04:01:36;18.60;99.90
26745;DHT22;14342;50.960;13.880;2023-08-24T04:02:37;18.60;99.90
26745;DHT22;14342;50.960;13.880;2023-08-24T04:03:38;18.50;99.90
26745;DHT22;14342;50.960;13.880;2023-08-24T04:04:39;18.60;99.90
26745;DHT22;14342;50.960;13.880;2023-08-24T04:05:41;18.60;99.90
26745;DHT22;14342;50.960;13.880;2023-08-24T04:06:41;18.60;99.90
26745;DHT22;14342;50.960;13.880;2023-08-24T04:07:43;18.60;99.90
26745;DHT22;14342;50.960;13.880;2023-08-24T04:08:44;18.50;99.90
26745;DHT22;14342;50.960;13.880;2023-08-24T04:09:46;18.60;99.90
26745;DHT22;14342;50.960;13.880;2023-08-24T04:10:46;18.60;99.90
26745;DHT22;14342;50.960;13.880;2023-08-24T04:11:48;18.50;99.90
26745;DHT22;14342;50.960;13.880;2023-08-24T04:12:48;18.50;99.90
26745;DHT22;14342;50.960;13.880;2023-08-24T04:13:50;18.40;99.90
26745;DHT22;14342;50.960;13.880;2023-08-24T04:14:50;18.40;99.90
26745;DHT22;14342;50.960;13.880;2023-08-24T04:15:54;18.40;99.90
26745;DHT22;14342;50.960;13.880;2023-08-24T04:16:55;18.30;99.90
26745;DHT22;14342;50.960;13.880;2023-08-24T04:17:56;18.30;99.90
26745;DHT22;14342;50.960;13.880;2023-08-24T04:18:57;18.30;99.90
26745;DHT22;14342;50.960;13.880;2023-08-24T04:19:58;18.20;99.90
26745;DHT22;14342;50.960;13.880;2023-08-24T04:20:59;18.20;99.90
26745;DHT22;14342;50.960;13.880;2023-08-24T04:22:01;18.20;99.90
26745;DHT22;14342;50.960;13.880;2023-08-24T04:23:02;18.30;99.90
26745;DHT22;14342;50.960;13.880;2023-08-24T04:24:04;18.20;99.90
26745;DHT22;14342;50.960;13.880;2023-08-24T04:25:05;18.20;99.90
26745;DHT22;14342;50.960;13.880;2023-08-24T04:26:07;18.20;99.90
26745;DHT22;14342;50.960;13.880;2023-08-24T04:27:07;18.20;99.90
26745;DHT22;14342;50.960;13.880;2023-08-24T04:28:09;18.20;99.90
26745;DHT22;14342;50.960;13.880;2023-08-24T04:29:10;18.20;99.90
26745;DHT22;14342;50.960;13.880;2023-08-24T04:30:11;18.30;99.90
26745;DHT22;14342;50.960;13.880;2023-08-24T04:31:15;18.30;99.90
26745;DHT22;14342;50.960;13.880;2023-08-24T04:32:17;18.30;99.90
26745;DHT22;14342;50.960;13.880;2023-08-24T04:33:18;18.30;99.90
26745;DHT22;14342;50.960;13.880;2023-08-24T04:34:19;18.30;99.90
26745;DHT22;14342;50.960;13.880;2023-08-24T04:35:20;18.30;99.90
26745;DHT22;14342;50.960;13.880;2023-08-24T04:36:21;18.30;99.90
26745;DHT22;14342;50.960;13.880;2023-08-24T04:37:22;18.30;99.90
26745;DHT22;14342;50.960;13.880;2023-08-24T04:38:24;18.30;99.90
26745;DHT22;14342;50.960;13.880;2023-08-24T04:39:24;18.30;99.90
26745;DHT22;14342;50.960;13.880;2023-08-24T04:40:26;18.30;99.90
26745;DHT22;14342;50.960;13.880;2023-08-24T04:41:27;18.30;99.90
26745;DHT22;14342;50.960;13.880;2023-08-24T04:42:29;18.20;99.90
26745;DHT22;14342;50.960;13.880;2023-08-24T04:43:29;18.20;99.90
26745;DHT22;14342;50.960;13.880;2023-08-24T04:44:31;18.20;99.90
26745;DHT22;14342;50.960;13.880;2023-08-24T04:45:32;18.20;99.90
26745;DHT22;14342;50.960;13.880;2023-08-24T04:46:35;18.20;99.90
26745;DHT22;14342;50.960;13.880;2023-08-24T04:47:35;18.20;99.90
26745;DHT22;14342;50.960;13.880;2023-08-24T04:48:37;18.20;99.90
26745;DHT22;14342;50.960;13.880;2023-08-24T04:49:38;18.20;99.90
26745;DHT22;14342;50.960;13.880;2023-08-24T04:50:41;18.20;99.90
26745;DHT22;14342;50.960;13.880;2023-08-24T04:51:42;18.20;99.90
26745;DHT22;14342;50.960;13.880;2023-08-24T04:52:43;18.30;99.90
26745;DHT22;14342;50.960;13.880;2023-08-24T04:53:44;18.30;99.90
26745;DHT22;14342;50.960;13.880;2023-08-24T04:54:46;18.30;99.90
26745;DHT22;14342;50.960;13.880;2023-08-24T04:55:47;18.30;99.90
26745;DHT22;14342;50.960;13.880;2023-08-24T04:56:49;18.30;99.90
26745;DHT22;14342;50.960;13.880;2023-08-24T04:57:49;18.30;99.90
26745;DHT22;14342;50.960;13.880;2023-08-24T04:58:54;18.30;99.90
26745;DHT22;14342;50.960;13.880;2023-08-24T04:59:55;18.40;99.90
26745;DHT22;14342;50.960;13.880;2023-08-24T05:00:57;18.40;99.90
26745;DHT22;14342;50.960;13.880;2023-08-24T05:01:59;18.40;99.90
26745;DHT22;14342;50.960;13.880;2023-08-24T05:03:03;18.40;99.90
26745;DHT22;14342;50.960;13.880;2023-08-24T05:04:04;18.40;99.90
26745;DHT22;14342;50.960;13.880;2023-08-24T05:05:06;18.40;99.90
26745;DHT22;14342;50.960;13.880;2023-08-24T05:06:07;18.40;99.90
26745;DHT22;14342;50.960;13.880;2023-08-24T05:07:09;18.40;99.90
26745;DHT22;14342;50.960;13.880;2023-08-24T05:08:10;18.50;99.90
26745;DHT22;14342;50.960;13.880;2023-08-24T05:09:11;18.50;99.90
26745;DHT22;14342;50.960;13.880;2023-08-24T05:10:12;18.50;99.90
26745;DHT22;14342;50.960;13.880;2023-08-24T05:11:16;18.50;99.90
26745;DHT22;14342;50.960;13.880;2023-08-24T05:12:17;18.60;99.90
26745;DHT22;14342;50.960;13.880;2023-08-24T05:13:18;18.50;99.90
26745;DHT22;14342;50.960;13.880;2023-08-24T05:14:19;18.60;99.90
26745;DHT22;14342;50.960;13.880;2023-08-24T05:15:21;18.60;99.90
26745;DHT22;14342;50.960;13.880;2023-08-24T05:16:21;18.60;99.90
26745;DHT22;14342;50.960;13.880;2023-08-24T05:17:24;18.60;99.90
26745;DHT22;14342;50.960;13.880;2023-08-24T05:18:27;18.70;99.90
26745;DHT22;14342;50.960;13.880;2023-08-24T05:19:28;18.70;99.90
26745;DHT22;14342;50.960;13.880;2023-08-24T05:20:29;18.70;99.90
26745;DHT22;14342;50.960;13.880;2023-08-24T05:21:30;18.70;99.90
26745;DHT22;14342;50.960;13.880;2023-08-24T05:22:31;18.70;99.90
26745;DHT22;14342;50.960;13.880;2023-08-24T05:23:32;18.70;99.90
26745;DHT22;14342;50.960;13.880;2023-08-24T05:24:34;18.80;99.90
26745;DHT22;14342;50.960;13.880;2023-08-24T05:25:35;18.70;99.90
26745;DHT22;14342;50.960;13.880;2023-08-24T05:26:37;18.80;99.90
26745;DHT22;14342;50.960;13.880;2023-08-24T05:27:38;18.80;99.90
26745;DHT22;14342;50.960;13.880;2023-08-24T05:28:40;18.80;99.90
26745;DHT22;14342;50.960;13.880;2023-08-24T05:29:41;18.80;99.90
26745;DHT22;14342;50.960;13.880;2023-08-24T05:30:43;18.90;99.90
26745;DHT22;14342;50.960;13.880;2023-08-24T05:31:44;18.90;99.90
26745;DHT22;14342;50.960;13.880;2023-08-24T05:32:47;18.90;99.90
26745;DHT22;14342;50.960;13.880;2023-08-24T05:33:48;18.90;99.90
26745;DHT22;14342;50.960;13.880;2023-08-24T05:34:49;18.90;99.90
26745;DHT22;14342;50.960;13.880;2023-08-24T05:35:51;19.00;99.90
26745;DHT22;14342;50.960;13.880;2023-08-24T05:36:52;19.00;99.90
26745;DHT22;14342;50.960;13.880;2023-08-24T05:37:53;19.00;99.90
26745;DHT22;14342;50.960;13.880;2023-08-24T05:38:55;19.00;99.90
26745;DHT22;14342;50.960;13.880;2023-08-24T05:39:57;19.00;99.90
26745;DHT22;14342;50.960;13.880;2023-08-24T05:40:58;19.00;99.90
26745;DHT22;14342;50.960;13.880;2023-08-24T05:42:00;19.00;99.90
26745;DHT22;14342;50.960;13.880;2023-08-24T05:43:01;19.00;99.90
26745;DHT22;14342;50.960;13.880;2023-08-24T05:44:03;19.00;99.90
26745;DHT22;14342;50.960;13.880;2023-08-24T05:45:04;19.00;99.90
26745;DHT22;14342;50.960;13.880;2023-08-24T05:46:06;19.00;99.90
26745;DHT22;14342;50.960;13.880;2023-08-24T05:47:06;19.10;99.90
26745;DHT22;14342;50.960;13.880;2023-08-24T05:48:10;19.10;99.90
26745;DHT22;14342;50.960;13.880;2023-08-24T05:49:11;19.10;99.90
26745;DHT22;14342;50.960;13.880;2023-08-24T05:50:12;19.10;99.90
26745;DHT22;14342;50.960;13.880;2023-08-24T05:51:13;19.10;99.90
26745;DHT22;14342;50.960;13.880;2023-08-24T05:52:15;19.10;99.90
26745;DHT22;14342;50.960;13.880;2023-08-24T05:53:16;19.20;99.90
26745;DHT22;14342;50.960;13.880;2023-08-24T05:54:17;19.20;99.90
26745;DHT22;14342;50.960;13.880;2023-08-24T05:55:19;19.20;99.90
26745;DHT22;14342;50.960;13.880;2023-08-24T05:56:20;19.20;99.90
26745;DHT22;14342;50.960;13.880;2023-08-24T05:57:21;19.20;99.90
26745;DHT22;14342;50.960;13.880;2023-08-24T05:58:23;19.30;99.90
26745;DHT22;14342;50.960;13.880;2023-08-24T05:59:23;19.30;99.90
26745;DHT22;14342;50.960;13.880;2023-08-24T06:00:25;19.30;99.90
26745;DHT22;14342;50.960;13.880;2023-08-24T06:01:26;19.30;99.90
26745;DHT22;14342;50.960;13.880;2023-08-24T06:02:27;19.30;99.90
26745;DHT22;14342;50.960;13.880;2023-08-24T06:03:30;19.30;99.90
26745;DHT22;14342;50.960;13.880;2023-08-24T06:04:31;19.20;99.90
26745;DHT22;14342;50.960;13.880;2023-08-24T06:05:33;19.20;99.90
26745;DHT22;14342;50.960;13.880;2023-08-24T06:06:34;19.20;99.90
26745;DHT22;14342;50.960;13.880;2023-08-24T06:07:35;19.30;99.90
26745;DHT22;14342;50.960;13.880;2023-08-24T06:08:36;19.30;99.90
26745;DHT22;14342;50.960;13.880;2023-08-24T06:09:38;19.30;99.90
26745;DHT22;14342;50.960;13.880;2023-08-24T06:10:38;19.40;99.90
26745;DHT22;14342;50.960;13.880;2023-08-24T06:11:40;19.40;99.90
26745;DHT22;14342;50.960;13.880;2023-08-24T06:12:41;19.40;99.90
26745;DHT22;14342;50.960;13.880;2023-08-24T06:13:42;19.40;99.90
26745;DHT22;14342;50.960;13.880;2023-08-24T06:14:43;19.40;99.90
26745;DHT22;14342;50.960;13.880;2023-08-24T06:15:45;19.50;99.90
26745;DHT22;14342;50.960;13.880;2023-08-24T06:16:45;19.50;99.90
26745;DHT22;14342;50.960;13.880;2023-08-24T06:17:48;19.50;99.90
26745;DHT22;14342;50.960;13.880;2023-08-24T06:18:51;19.60;99.90
26745;DHT22;14342;50.960;13.880;2023-08-24T06:19:53;19.60;99.90
26745;DHT22;14342;50.960;13.880;2023-08-24T06:20:54;19.70;99.90
26745;DHT22;14342;50.960;13.880;2023-08-24T06:21:55;19.70;99.90